createdAt,value
2023-09-08T00:02:27.416Z,100974.34
2023-09-08T00:04:55.617Z,100976.39
2023-09-08T00:07:22.844Z,100975.17
2023-09-08T00:09:49.940Z,100971.73
2023-09-08T00:12:17.766Z,100972.61
2023-09-08T00:14:44.950Z,100971.98
2023-09-08T00:17:12.058Z,100971.55
2023-09-08T00:19:39.392Z,100970.92
2023-09-08T00:22:06.451Z,100968.85
2023-09-08T00:24:34.313Z,100965.08
2023-09-08T00:27:01.657Z,100960.55
2023-09-08T00:29:29.014Z,100963.04
2023-09-08T00:31:56.328Z,100965.31
2023-09-08T00:34:23.383Z,100962.61
2023-09-08T00:36:51.517Z,100961.25
2023-09-08T00:39:18.725Z,100960.16
2023-09-08T00:41:45.768Z,100958.55
2023-09-08T00:44:12.741Z,100959.94
2023-09-08T00:46:40.715Z,100959.19
2023-09-08T00:49:09.369Z,100953.70
2023-09-08T00:51:38.144Z,100955.70
2023-09-08T00:54:07.001Z,100951.10
2023-09-08T00:56:37.387Z,100954.52
2023-09-08T00:59:05.897Z,100951.27
2023-09-08T01:01:35.028Z,100957.40
2023-09-08T01:04:02.925Z,100956.30
2023-09-08T01:06:33.191Z,100956.42
2023-09-08T01:09:00.700Z,100957.59
2023-09-08T01:11:28.617Z,100955.31
2023-09-08T01:13:55.566Z,100950.79
2023-09-08T01:16:22.848Z,100950.38
2023-09-08T01:18:51.173Z,100949.78
2023-09-08T01:21:38.780Z,100948.49
2023-09-08T01:24:14.939Z,100953.40
2023-09-08T01:26:42.485Z,100944.01
2023-09-08T01:29:11.290Z,100938.87
2023-09-08T01:31:38.904Z,100938.29
2023-09-08T01:34:07.540Z,100940.02
2023-09-08T01:36:35.641Z,100942.69
2023-09-08T01:39:03.375Z,100942.89
2023-09-08T01:41:31.821Z,100939.86
2023-09-08T01:44:00.601Z,100937.11
2023-09-08T01:46:27.585Z,100938.23
2023-09-08T01:48:54.566Z,100934.17
2023-09-08T01:51:21.558Z,100934.50
2023-09-08T01:53:48.583Z,100927.80
2023-09-08T01:56:15.517Z,100933.97
2023-09-08T01:58:42.657Z,100935.99
2023-09-08T02:01:09.757Z,100935.40
2023-09-08T02:03:36.762Z,100935.31
2023-09-08T02:06:03.839Z,100936.21
2023-09-08T02:08:30.769Z,100940.57
2023-09-08T02:10:57.719Z,100936.36
2023-09-08T02:13:24.679Z,100941.36
2023-09-08T02:15:51.913Z,100945.23
2023-09-08T02:18:18.995Z,100948.23
2023-09-08T02:20:46.021Z,100944.64
2023-09-08T02:23:13.022Z,100943.83
2023-09-08T02:25:40.005Z,100944.77
2023-09-08T02:28:07.002Z,100940.70
2023-09-08T02:30:34.031Z,100938.41
2023-09-08T02:33:03.373Z,100941.98
2023-09-08T02:35:30.442Z,100937.93
2023-09-08T02:37:57.793Z,100934.07
2023-09-08T02:40:24.749Z,100932.59
2023-09-08T02:42:51.781Z,100930.09
2023-09-08T02:45:18.843Z,100928.68
2023-09-08T02:47:45.909Z,100924.09
2023-09-08T02:50:12.894Z,100927.93
2023-09-08T02:52:39.833Z,100929.19
2023-09-08T02:55:07.391Z,100930.92
2023-09-08T02:57:34.344Z,100933.67
2023-09-08T03:00:01.436Z,100929.37
2023-09-08T03:02:28.591Z,100922.02
2023-09-08T03:04:55.737Z,100915.82
2023-09-08T03:07:23.122Z,100911.59
2023-09-08T03:09:50.069Z,100912.77
2023-09-08T03:12:17.064Z,100916.77
2023-09-08T03:14:44.144Z,100927.27
2023-09-08T03:17:12.982Z,100928.64
2023-09-08T03:19:40.090Z,100926.29
2023-09-08T03:22:07.028Z,100928.33
2023-09-08T03:24:34.003Z,100926.98
2023-09-08T03:27:01.050Z,100926.49
2023-09-08T03:29:28.140Z,100931.23
2023-09-08T03:31:55.427Z,100926.98
2023-09-08T03:34:22.549Z,100925.50
2023-09-08T03:36:50.009Z,100927.48
2023-09-08T03:39:17.094Z,100930.41
2023-09-08T03:41:44.077Z,100925.05
2023-09-08T03:44:11.046Z,100922.60
2023-09-08T03:46:38.157Z,100927.39
2023-09-08T03:49:05.402Z,100925.10
2023-09-08T03:51:32.416Z,100923.16
2023-09-08T03:53:59.491Z,100918.20
2023-09-08T03:56:26.830Z,100917.98
2023-09-08T03:58:53.809Z,100915.94
2023-09-08T04:01:20.751Z,100910.19
2023-09-08T04:03:47.753Z,100911.98
2023-09-08T04:06:14.759Z,100912.95
2023-09-08T04:08:41.714Z,100913.66
2023-09-08T04:11:08.749Z,100911.06
2023-09-08T04:13:35.966Z,100912.03
2023-09-08T04:16:03.316Z,100917.05
2023-09-08T04:18:30.398Z,100918.20
2023-09-08T04:20:57.478Z,100917.95
2023-09-08T04:23:24.533Z,100924.05
2023-09-08T04:25:51.476Z,100924.77
2023-09-08T04:28:18.469Z,100924.84
2023-09-08T04:30:45.443Z,100926.89
2023-09-08T04:33:12.940Z,100921.13
2023-09-08T04:35:39.994Z,100922.06
2023-09-08T04:38:07.804Z,100922.46
2023-09-08T04:40:34.854Z,100919.71
2023-09-08T04:43:01.819Z,100920.23
2023-09-08T04:45:28.933Z,100918.80
2023-09-08T04:47:56.055Z,100920.91
2023-09-08T04:50:23.267Z,100914.89
2023-09-08T04:52:50.268Z,100916.31
2023-09-08T04:55:18.042Z,100913.31
2023-09-08T04:57:45.275Z,100914.09
2023-09-08T05:00:13.185Z,100916.13
2023-09-08T05:02:40.281Z,100917.83
2023-09-08T05:05:08.000Z,100918.70
2023-09-08T05:07:35.043Z,100915.92
2023-09-08T05:10:02.039Z,100916.22
2023-09-08T05:12:29.125Z,100915.42
2023-09-08T05:15:00.444Z,100910.25
2023-09-08T05:17:27.483Z,100912.61
2023-09-08T05:19:54.497Z,100911.52
2023-09-08T05:22:21.704Z,100915.23
2023-09-08T05:24:48.842Z,100912.66
2023-09-08T05:27:15.872Z,100910.54
2023-09-08T05:29:42.876Z,100910.70
2023-09-08T05:32:09.795Z,100909.34
2023-09-08T05:34:37.187Z,100905.77
2023-09-08T05:37:04.213Z,100904.75
2023-09-08T05:39:31.221Z,100910.36
2023-09-08T05:41:58.231Z,100912.67
2023-09-08T05:44:25.666Z,100916.09
2023-09-08T05:46:52.825Z,100917.02
2023-09-08T05:49:19.937Z,100913.21
2023-09-08T05:51:47.212Z,100916.61
2023-09-08T05:54:14.167Z,100918.22
2023-09-08T05:56:41.099Z,100915.13
2023-09-08T05:59:08.054Z,100919.55
2023-09-08T06:01:35.199Z,100918.95
2023-09-08T06:04:02.844Z,100919.09
2023-09-08T06:06:30.078Z,100916.77
2023-09-08T06:08:57.207Z,100917.23
2023-09-08T06:11:24.275Z,100913.52
2023-09-08T06:13:52.787Z,100914.22
2023-09-08T06:16:19.790Z,100912.45
2023-09-08T06:18:46.864Z,100913.69
2023-09-08T06:21:13.828Z,100912.51
2023-09-08T06:23:40.993Z,100912.73
2023-09-08T06:26:08.144Z,100912.52
2023-09-08T06:28:36.136Z,100913.14
2023-09-08T06:31:04.669Z,100911.95
2023-09-08T06:33:31.876Z,100910.36
2023-09-08T06:35:58.913Z,100909.23
2023-09-08T06:38:25.934Z,100911.48
2023-09-08T06:40:54.329Z,100911.52
2023-09-08T06:43:21.321Z,100909.20
2023-09-08T06:45:49.711Z,100909.78
2023-09-08T06:48:17.393Z,100910.94
2023-09-08T06:50:44.480Z,100915.59
2023-09-08T06:53:13.044Z,100918.44
2023-09-08T06:55:42.095Z,100919.17
2023-09-08T06:58:11.052Z,100923.60
2023-09-08T07:00:38.151Z,100925.45
2023-09-08T07:03:06.350Z,100923.89
2023-09-08T07:05:33.437Z,100923.85
2023-09-08T07:08:00.445Z,100920.17
2023-09-08T07:10:27.589Z,100919.31
2023-09-08T07:12:54.576Z,100920.46
2023-09-08T07:15:21.694Z,100921.38
2023-09-08T07:17:48.699Z,100919.26
2023-09-08T07:20:15.844Z,100919.92
2023-09-08T07:22:42.789Z,100921.67
2023-09-08T07:25:10.170Z,100924.47
2023-09-08T07:27:37.181Z,100924.67
2023-09-08T07:30:05.395Z,100926.65
2023-09-08T07:32:32.456Z,100921.20
2023-09-08T07:34:59.450Z,100928.19
2023-09-08T07:37:26.577Z,100927.27
2023-09-08T07:39:53.557Z,100926.07
2023-09-08T07:42:20.630Z,100926.96
2023-09-08T07:44:47.983Z,100923.65
2023-09-08T07:47:14.927Z,100921.46
2023-09-08T07:49:47.976Z,100921.76
2023-09-08T07:52:15.268Z,100921.27
2023-09-08T07:54:42.522Z,100927.98
2023-09-08T07:57:09.814Z,100927.58
2023-09-08T07:59:38.062Z,100927.54
2023-09-08T08:02:05.321Z,100930.90
2023-09-08T08:04:32.474Z,100929.07
2023-09-08T08:06:59.562Z,100927.63
2023-09-08T08:09:26.594Z,100927.44
2023-09-08T08:11:53.613Z,100923.27
2023-09-08T08:14:20.577Z,100919.26
2023-09-08T08:16:47.619Z,100921.92
2023-09-08T08:19:14.621Z,100922.73
2023-09-08T08:21:42.576Z,100915.55
2023-09-08T08:24:10.728Z,100915.39
2023-09-08T08:26:37.714Z,100914.79
2023-09-08T08:29:04.774Z,100921.02
2023-09-08T08:31:33.560Z,100920.65
2023-09-08T08:34:00.642Z,100919.06
2023-09-08T08:36:27.705Z,100917.72
2023-09-08T08:38:54.784Z,100915.42
2023-09-08T08:41:21.812Z,100908.71
2023-09-08T08:43:49.803Z,100909.29
2023-09-08T08:46:18.250Z,100909.24
2023-09-08T08:48:46.310Z,100905.64
2023-09-08T08:51:15.232Z,100908.21
2023-09-08T08:53:42.487Z,100909.90
2023-09-08T08:56:11.017Z,100906.14
2023-09-08T08:58:40.054Z,100907.36
2023-09-08T09:01:08.073Z,100908.81
2023-09-08T09:03:37.990Z,100905.59
2023-09-08T09:06:05.295Z,100905.63
2023-09-08T09:08:34.146Z,100901.20
2023-09-08T09:11:01.555Z,100896.00
2023-09-08T09:13:28.572Z,100892.56
2023-09-08T09:16:00.847Z,100891.65
2023-09-08T09:18:30.655Z,100887.36
2023-09-08T09:21:01.237Z,100889.17
2023-09-08T09:23:30.689Z,100885.05
2023-09-08T09:25:59.238Z,100885.42
2023-09-08T09:28:29.308Z,100885.05
2023-09-08T09:30:56.653Z,100880.29
2023-09-08T09:33:23.955Z,100880.71
2023-09-08T09:35:53.860Z,100874.05
2023-09-08T09:38:21.930Z,100874.39
2023-09-08T09:40:49.598Z,100872.29
2023-09-08T09:43:17.458Z,100871.80
2023-09-08T09:45:45.510Z,100866.27
2023-09-08T09:48:12.862Z,100865.21
2023-09-08T09:50:45.188Z,100865.09
2023-09-08T09:53:17.648Z,100863.27
2023-09-08T09:55:45.841Z,100865.52
2023-09-08T09:58:14.434Z,100865.52
2023-09-08T10:00:41.819Z,100860.22
2023-09-08T10:03:09.914Z,100861.25
2023-09-08T10:05:37.990Z,100860.84
2023-09-08T10:08:05.866Z,100856.02
2023-09-08T10:10:34.980Z,100850.36
2023-09-08T10:13:07.892Z,100849.70
2023-09-08T10:15:36.960Z,100850.80
2023-09-08T10:18:10.907Z,100851.13
2023-09-08T10:20:39.809Z,100845.69
2023-09-08T10:23:16.266Z,100844.23
2023-09-08T10:25:54.130Z,100843.09
2023-09-08T10:28:25.523Z,100839.98
2023-09-08T10:30:53.393Z,100840.76
2023-09-08T10:33:21.050Z,100844.48
2023-09-08T10:35:48.375Z,100845.00
2023-09-08T10:38:27.572Z,100842.27
2023-09-08T10:41:17.738Z,100840.40
2023-09-08T10:43:45.276Z,100836.55
2023-09-08T10:46:23.623Z,100834.53
2023-09-08T10:48:50.635Z,100837.62
2023-09-08T10:51:17.850Z,100835.92
2023-09-08T10:53:49.949Z,100831.40
2023-09-08T10:56:18.378Z,100828.72
2023-09-08T10:58:51.882Z,100826.38
2023-09-08T11:01:28.140Z,100822.52
2023-09-08T11:03:55.728Z,100820.62
2023-09-08T11:06:23.104Z,100821.79
2023-09-08T11:08:56.083Z,100818.69
2023-09-08T11:11:23.271Z,100816.77
2023-09-08T11:13:50.455Z,100819.21
2023-09-08T11:16:25.774Z,100815.41
2023-09-08T11:18:52.996Z,100813.23
2023-09-08T11:21:20.127Z,100807.25
2023-09-08T11:23:47.960Z,100805.48
2023-09-08T11:26:15.150Z,100805.58
2023-09-08T11:28:42.471Z,100805.48
2023-09-08T11:31:12.525Z,100807.54
2023-09-08T11:33:40.457Z,100800.27
2023-09-08T11:36:15.162Z,100804.99
2023-09-08T11:38:44.522Z,100804.27
2023-09-08T11:41:11.996Z,100803.95
2023-09-08T11:43:41.963Z,100806.89
2023-09-08T11:46:11.078Z,100803.26
2023-09-08T11:48:39.050Z,100804.72
2023-09-08T11:51:09.415Z,100801.14
2023-09-08T11:53:37.910Z,100795.27
2023-09-08T11:56:05.885Z,100792.65
2023-09-08T11:58:34.322Z,100794.81
2023-09-08T12:01:03.864Z,100792.06
2023-09-08T12:03:30.995Z,100791.91
2023-09-08T12:05:59.146Z,100791.58
2023-09-08T12:08:29.727Z,100791.93
2023-09-08T12:10:56.789Z,100792.00
2023-09-08T12:13:24.471Z,100794.87
2023-09-08T12:15:51.777Z,100790.55
2023-09-08T12:18:19.092Z,100788.42
2023-09-08T12:20:46.202Z,100785.54
2023-09-08T12:23:22.799Z,100785.77
2023-09-08T12:25:52.832Z,100783.85
2023-09-08T12:28:21.987Z,100788.11
2023-09-08T12:30:55.443Z,100786.29
2023-09-08T12:33:22.819Z,100776.64
2023-09-08T12:35:51.452Z,100770.02
2023-09-08T12:38:18.818Z,100769.67
2023-09-08T12:40:45.921Z,100767.75
2023-09-08T12:43:20.302Z,100767.65
2023-09-08T12:45:56.629Z,100763.42
2023-09-08T12:48:24.459Z,100763.52
2023-09-08T12:50:51.950Z,100757.87
2023-09-08T12:53:19.203Z,100754.14
2023-09-08T12:55:47.772Z,100753.13
2023-09-08T12:58:16.526Z,100752.38
2023-09-08T13:00:44.793Z,100752.06
2023-09-08T13:03:12.030Z,100749.70
2023-09-08T13:05:39.570Z,100752.86
2023-09-08T13:08:07.288Z,100754.24
2023-09-08T13:10:34.356Z,100757.98
2023-09-08T13:13:01.657Z,100752.23
2023-09-08T13:15:28.716Z,100749.36
2023-09-08T13:17:56.833Z,100746.99
2023-09-08T13:20:24.433Z,100747.79
2023-09-08T13:22:51.560Z,100745.54
2023-09-08T13:25:18.802Z,100742.65
2023-09-08T13:27:48.192Z,100737.33
2023-09-08T13:30:16.622Z,100740.80
2023-09-08T13:32:45.419Z,100737.11
2023-09-08T13:35:12.623Z,100734.39
2023-09-08T13:37:40.025Z,100731.11
2023-09-08T13:40:08.421Z,100727.10
2023-09-08T13:42:36.418Z,100725.14
2023-09-08T13:45:05.052Z,100720.90
2023-09-08T13:47:33.264Z,100720.32
2023-09-08T13:50:02.623Z,100711.45
2023-09-08T13:52:32.057Z,100710.48
2023-09-08T13:55:27.873Z,100705.31
2023-09-08T13:57:49.396Z,100701.74
2023-09-08T14:00:22.766Z,100698.17
2023-09-08T14:02:51.749Z,100697.77
2023-09-08T14:05:27.200Z,100693.57
2023-09-08T14:08:05.290Z,100694.06
2023-09-08T14:13:05.159Z,100695.59
2023-09-08T14:15:32.615Z,100692.11
2023-09-08T14:18:16.283Z,100690.88
2023-09-08T14:20:43.813Z,100689.21
2023-09-08T14:23:14.262Z,100686.72
2023-09-08T14:25:41.911Z,100684.91
2023-09-08T14:28:09.268Z,100684.09
2023-09-08T14:30:36.712Z,100683.90
2023-09-08T14:33:07.337Z,100683.11
2023-09-08T14:35:35.697Z,100680.86
2023-09-08T14:38:03.340Z,100682.55
2023-09-08T14:40:30.449Z,100681.79
2023-09-08T14:42:57.566Z,100681.54
2023-09-08T14:45:27.118Z,100680.54
2023-09-08T14:47:59.437Z,100684.61
2023-09-08T14:50:34.685Z,100685.41
2023-09-08T14:53:04.077Z,100682.96
2023-09-08T14:55:45.103Z,100679.72
2023-09-08T14:58:12.781Z,100674.28
2023-09-08T15:00:41.043Z,100672.02
2023-09-08T15:03:09.148Z,100675.47
2023-09-08T15:05:36.667Z,100674.77
2023-09-08T15:08:04.163Z,100671.64
2023-09-08T15:10:33.953Z,100671.23
2023-09-08T15:13:01.351Z,100666.35
2023-09-08T15:15:40.249Z,100669.85
2023-09-08T15:18:28.006Z,100667.81
2023-09-08T15:21:00.004Z,100667.89
2023-09-08T15:23:56.003Z,100662.61
2023-09-08T15:26:30.706Z,100660.98
2023-09-08T15:29:15.700Z,100663.88
2023-09-08T15:32:06.954Z,100665.08
2023-09-08T15:34:41.928Z,100661.94
2023-09-08T15:37:12.277Z,100661.15
2023-09-08T15:40:05.212Z,100660.68
2023-09-08T15:43:00.532Z,100659.09
2023-09-08T15:45:37.948Z,100658.73
2023-09-08T15:48:33.811Z,100659.09
2023-09-08T15:51:01.281Z,100660.69
2023-09-08T15:53:51.486Z,100657.13
2023-09-08T15:56:19.128Z,100654.20
2023-09-08T15:58:59.176Z,100648.85
2023-09-08T16:01:26.587Z,100647.45
2023-09-08T16:03:54.318Z,100646.45
2023-09-08T16:06:35.958Z,100644.41
2023-09-08T16:09:23.494Z,100640.39
2023-09-08T16:11:59.233Z,100644.52
2023-09-08T16:14:50.762Z,100644.45
2023-09-08T16:17:28.032Z,100637.59
2023-09-08T16:20:39.424Z,100635.98
2023-09-08T16:23:30.083Z,100634.37
2023-09-08T16:26:09.708Z,100634.75
2023-09-08T16:28:36.838Z,100629.73
2023-09-08T16:31:18.788Z,100631.81
2023-09-08T16:33:54.163Z,100629.31
2023-09-08T16:36:49.189Z,100628.17
2023-09-08T16:39:53.120Z,100626.68
2023-09-08T16:43:05.707Z,100628.98
2023-09-08T16:48:03.822Z,100627.89
2023-09-08T16:50:32.452Z,100628.80
2023-09-08T16:53:00.952Z,100629.66
2023-09-08T16:55:29.399Z,100627.90
2023-09-08T16:57:57.860Z,100630.37
2023-09-08T17:00:26.281Z,100626.67
2023-09-08T17:02:54.779Z,100626.04
2023-09-08T17:05:23.359Z,100621.48
2023-09-08T17:07:53.519Z,100618.56
2023-09-08T17:10:21.929Z,100621.45
2023-09-08T17:12:50.322Z,100619.05
2023-09-08T17:15:18.720Z,100618.69
2023-09-08T17:17:47.105Z,100614.48
2023-09-08T17:20:15.676Z,100615.56
2023-09-08T17:22:44.100Z,100617.65
2023-09-08T17:25:13.220Z,100620.20
2023-09-08T17:27:44.415Z,100619.53
2023-09-08T17:30:13.734Z,100616.84
2023-09-08T17:32:42.075Z,100617.90
2023-09-08T17:35:10.604Z,100618.52
2023-09-08T17:37:39.020Z,100624.92
2023-09-08T17:40:10.919Z,100624.78
2023-09-08T17:42:39.303Z,100621.08
2023-09-08T17:45:08.813Z,100624.21
2023-09-08T17:47:37.325Z,100624.89
2023-09-08T17:50:06.802Z,100623.14
2023-09-08T17:52:35.169Z,100624.10
2023-09-08T17:55:05.191Z,100626.71
2023-09-08T17:57:33.596Z,100625.02
2023-09-08T18:00:06.077Z,100625.16
2023-09-08T18:02:34.804Z,100624.83
2023-09-08T18:05:03.207Z,100628.08
2023-09-08T18:07:32.491Z,100627.16
2023-09-08T18:10:01.115Z,100627.46
2023-09-08T18:12:29.835Z,100633.61
2023-09-08T18:14:58.244Z,100633.55
2023-09-08T18:17:27.114Z,100635.98
2023-09-08T18:19:55.653Z,100631.10
2023-09-08T18:36:56.346Z,100640.09
2023-09-08T18:39:24.720Z,100637.94
2023-09-08T18:41:53.133Z,100637.86
2023-09-08T18:44:21.543Z,100641.52
2023-09-08T18:46:50.388Z,100642.19
2023-09-08T18:49:20.379Z,100642.08
2023-09-08T18:51:50.169Z,100645.91
2023-09-08T18:54:18.571Z,100646.27
2023-09-08T18:56:46.974Z,100647.77
2023-09-08T18:59:15.278Z,100647.20
2023-09-08T19:01:43.702Z,100648.21
2023-09-08T19:04:12.752Z,100646.34
2023-09-08T19:06:41.111Z,100646.75
2023-09-08T19:09:09.448Z,100646.55
2023-09-08T19:11:37.876Z,100648.44
2023-09-08T19:14:06.302Z,100642.00
2023-09-08T19:16:34.798Z,100643.70
2023-09-08T19:19:03.462Z,100642.85
2023-09-08T19:21:31.846Z,100645.14
2023-09-08T19:24:00.232Z,100646.80
2023-09-08T19:26:28.586Z,100646.84
2023-09-08T19:28:56.965Z,100647.48
2023-09-08T19:31:25.368Z,100645.97
2023-09-08T19:33:53.805Z,100646.20
2023-09-08T19:36:22.164Z,100643.58
2023-09-08T19:38:53.129Z,100640.40
2023-09-08T19:41:25.063Z,100643.38
2023-09-08T19:43:53.733Z,100643.66
2023-09-08T19:46:22.107Z,100643.10
2023-09-08T19:48:50.873Z,100642.40
2023-09-08T19:51:22.355Z,100648.60
2023-09-08T19:53:51.397Z,100645.47
2023-09-08T19:56:19.770Z,100642.14
2023-09-08T19:58:56.021Z,100642.52
2023-09-08T20:01:24.493Z,100643.30
2023-09-08T20:03:52.872Z,100643.59
2023-09-08T20:06:21.309Z,100645.16
2023-09-08T20:08:49.910Z,100644.83
2023-09-08T20:11:18.235Z,100642.73
2023-09-08T20:13:46.615Z,100643.80
2023-09-08T20:16:14.995Z,100645.16
2023-09-08T20:18:43.467Z,100643.46
2023-09-08T20:21:12.086Z,100646.50
2023-09-08T20:23:40.629Z,100645.20
2023-09-08T20:26:09.938Z,100646.46
2023-09-08T20:28:38.465Z,100646.78
2023-09-08T20:31:16.456Z,100642.28
2023-09-08T20:33:47.221Z,100640.83
2023-09-08T20:36:17.944Z,100648.27
2023-09-08T20:38:46.836Z,100648.42
2023-09-08T20:41:15.217Z,100646.75
2023-09-08T20:43:43.717Z,100649.38
2023-09-08T20:46:12.122Z,100650.07
2023-09-08T20:48:41.090Z,100649.98
2023-09-08T20:51:12.459Z,100644.50
2023-09-08T20:53:43.194Z,100647.62
2023-09-08T20:56:11.839Z,100642.89
2023-09-08T20:58:42.565Z,100645.65
2023-09-08T21:01:11.429Z,100647.48
2023-09-08T21:03:40.490Z,100648.18
2023-09-08T21:06:11.415Z,100650.77
2023-09-08T21:08:39.970Z,100648.48
2023-09-08T21:11:08.724Z,100648.05
2023-09-08T21:13:37.387Z,100645.40
2023-09-08T21:16:06.119Z,100644.43
2023-09-08T21:18:34.534Z,100647.88
2023-09-08T21:21:04.859Z,100649.95
2023-09-08T21:23:33.210Z,100654.63
2023-09-08T21:26:05.932Z,100657.32
2023-09-08T21:28:34.501Z,100651.91
2023-09-08T21:31:08.927Z,100652.14
2023-09-08T21:33:39.458Z,100651.80
2023-09-08T21:36:10.621Z,100646.98
2023-09-08T21:38:39.416Z,100648.67
2023-09-08T21:41:11.861Z,100648.52
2023-09-08T21:43:40.569Z,100652.09
2023-09-08T21:46:10.476Z,100650.74
2023-09-08T21:48:39.736Z,100652.83
2023-09-08T21:51:09.870Z,100652.05
2023-09-08T21:53:38.669Z,100653.30
2023-09-08T21:56:07.368Z,100647.68
2023-09-08T21:58:35.957Z,100652.22
2023-09-08T22:01:05.330Z,100649.48
2023-09-08T22:03:33.886Z,100647.95
2023-09-08T22:06:02.529Z,100648.58
2023-09-08T22:08:30.900Z,100649.04
2023-09-08T22:11:04.604Z,100653.52
2023-09-08T22:13:36.734Z,100656.41
2023-09-08T22:16:06.320Z,100652.60
2023-09-08T22:18:35.644Z,100656.80
2023-09-08T22:21:05.688Z,100652.20
2023-09-08T22:23:34.421Z,100647.86
2023-09-08T22:26:03.991Z,100645.16
2023-09-08T22:28:32.398Z,100643.73
2023-09-08T22:31:00.744Z,100646.27
2023-09-08T22:33:30.602Z,100645.30
2023-09-08T22:35:59.302Z,100644.38
2023-09-08T22:38:27.925Z,100639.12
2023-09-08T22:40:56.344Z,100633.29
2023-09-08T22:43:25.819Z,100629.84
2023-09-08T22:45:57.112Z,100625.84
2023-09-08T22:48:25.570Z,100625.05
2023-09-08T22:50:53.960Z,100624.26
2023-09-08T22:53:22.409Z,100629.43
2023-09-08T22:55:50.895Z,100631.14
2023-09-08T22:58:19.356Z,100628.84
2023-09-08T23:00:47.884Z,100628.77
2023-09-08T23:03:16.331Z,100632.10
2023-09-08T23:05:45.217Z,100630.66
2023-09-08T23:08:13.619Z,100626.52
2023-09-08T23:10:41.968Z,100627.20
2023-09-08T23:13:10.276Z,100630.23
2023-09-08T23:15:38.776Z,100630.73
2023-09-08T23:18:10.678Z,100630.80
2023-09-08T23:20:42.159Z,100629.20
2023-09-08T23:23:10.645Z,100630.83
2023-09-08T23:25:39.031Z,100628.02
2023-09-08T23:28:07.493Z,100625.29
2023-09-08T23:30:36.662Z,100622.25
2023-09-08T23:33:07.683Z,100623.66
2023-09-08T23:35:36.217Z,100621.20
2023-09-08T23:38:04.958Z,100619.10
2023-09-08T23:40:39.758Z,100618.63
2023-09-08T23:43:08.329Z,100616.27
2023-09-08T23:45:37.997Z,100616.56
2023-09-08T23:48:06.786Z,100617.21
2023-09-08T23:50:59.633Z,100612.35
2023-09-08T23:53:29.754Z,100614.20
2023-09-08T23:56:05.940Z,100608.11
2023-09-08T23:58:34.310Z,100609.81
